createdAt,value
2023-03-08T00:02:42.996Z,100.00
2023-03-08T00:07:46.576Z,100.00
2023-03-08T00:12:49.776Z,100.00
2023-03-08T00:17:54.319Z,100.00
2023-03-08T00:22:57.612Z,100.00
2023-03-08T00:28:00.697Z,100.00
2023-03-08T00:33:05.369Z,100.00
2023-03-08T00:38:08.678Z,100.00
2023-03-08T00:43:11.773Z,100.00
2023-03-08T00:48:16.520Z,100.00
2023-03-08T00:53:19.695Z,100.00
2023-03-08T00:58:23.150Z,100.00
2023-03-08T01:03:28.295Z,100.00
2023-03-08T01:08:31.404Z,100.00
2023-03-08T01:13:37.078Z,100.00
2023-03-08T01:18:41.751Z,100.00
2023-03-08T01:23:45.043Z,100.00
2023-03-08T01:28:48.845Z,100.00
2023-03-08T01:33:53.785Z,100.00
2023-03-08T01:38:57.477Z,100.00
2023-03-08T01:44:01.332Z,100.00
2023-03-08T01:49:10.333Z,100.00
2023-03-08T01:54:17.750Z,100.00
2023-03-08T01:59:23.887Z,100.00
2023-03-08T02:04:28.434Z,100.00
2023-03-08T02:09:32.361Z,100.00
2023-03-08T02:14:36.375Z,100.00
2023-03-08T02:19:48.438Z,100.00
2023-03-08T02:24:53.253Z,100.00
2023-03-08T02:29:56.526Z,100.00
2023-03-08T02:34:59.808Z,100.00
2023-03-08T02:40:04.640Z,100.00
2023-03-08T02:45:09.269Z,100.00
2023-03-08T02:50:13.292Z,100.00
2023-03-08T02:55:18.052Z,100.00
2023-03-08T03:00:21.969Z,100.00
2023-03-08T03:05:25.129Z,100.00
2023-03-08T03:10:31.677Z,100.00
2023-03-08T03:15:35.330Z,100.00
2023-03-08T03:20:38.416Z,100.00
2023-03-08T03:25:44.274Z,100.00
2023-03-08T03:30:47.503Z,100.00
2023-03-08T03:35:51.341Z,100.00
2023-03-08T03:41:04.276Z,100.00
2023-03-08T03:46:09.335Z,100.00
2023-03-08T03:51:13.750Z,100.00
2023-03-08T03:56:20.334Z,100.00
2023-03-08T04:01:25.876Z,100.00
2023-03-08T04:06:31.254Z,100.00
2023-03-08T04:11:38.050Z,100.00
2023-03-08T04:16:41.561Z,100.00
2023-03-08T04:21:44.869Z,100.00
2023-03-08T04:26:49.525Z,100.00
2023-03-08T04:31:52.715Z,100.00
2023-03-08T04:36:55.869Z,100.00
2023-03-08T04:42:00.319Z,100.00
2023-03-08T04:47:03.425Z,100.00
2023-03-08T04:52:07.345Z,100.00
2023-03-08T04:57:11.946Z,100.00
2023-03-08T05:02:15.138Z,100.00
2023-03-08T05:07:18.501Z,100.00
2023-03-08T05:12:23.231Z,100.00
2023-03-08T05:17:26.468Z,100.00
2023-03-08T05:22:29.694Z,100.00
2023-03-08T05:27:35.130Z,100.00
2023-03-08T05:32:38.404Z,100.00
2023-03-08T05:37:41.630Z,100.00
2023-03-08T05:42:46.324Z,100.00
2023-03-08T05:47:49.615Z,100.00
2023-03-08T05:53:17.623Z,100.00
2023-03-08T05:58:22.244Z,100.00
2023-03-08T06:03:27.254Z,100.00
2023-03-08T06:08:30.708Z,100.00
2023-03-08T06:13:38.617Z,100.00
2023-03-08T06:18:43.284Z,100.00
2023-03-08T06:23:48.137Z,100.00
2023-03-08T06:28:53.126Z,100.00
2023-03-08T06:33:59.536Z,100.00
2023-03-08T06:39:02.796Z,100.00
2023-03-08T06:44:11.158Z,100.00
2023-03-08T06:49:14.281Z,100.00
2023-03-08T06:54:22.322Z,100.00
2023-03-08T06:59:27.813Z,100.00
2023-03-08T07:04:31.042Z,100.00
2023-03-08T07:09:34.372Z,100.00
2023-03-08T07:14:38.977Z,100.00
2023-03-08T07:19:42.170Z,100.00
2023-03-08T07:24:49.788Z,100.00
2023-03-08T07:29:56.222Z,100.00
2023-03-08T07:34:59.955Z,100.00
2023-03-08T07:40:04.709Z,100.00
2023-03-08T07:45:10.480Z,100.00
2023-03-08T07:50:14.310Z,100.00
2023-03-08T07:55:18.328Z,100.00
2023-03-08T08:00:23.787Z,100.00
2023-03-08T08:05:27.144Z,100.00
2023-03-08T08:10:31.027Z,100.00
2023-03-08T08:15:35.695Z,100.00
2023-03-08T08:20:39.086Z,100.00
2023-03-08T08:25:43.809Z,100.00
2023-03-08T08:30:57.433Z,100.00
2023-03-08T08:36:01.855Z,100.00
2023-03-08T08:41:07.234Z,100.00
2023-03-08T08:46:12.195Z,100.00
2023-03-08T08:51:16.000Z,100.00
2023-03-08T08:56:26.584Z,100.00
2023-03-08T09:01:35.736Z,100.00
2023-03-08T09:06:39.011Z,100.00
2023-03-08T09:11:53.825Z,100.00
2023-03-08T09:17:00.780Z,100.00
2023-03-08T09:22:04.438Z,100.00
2023-03-08T09:27:07.794Z,99.85
2023-03-08T09:32:13.712Z,99.75
2023-03-08T09:37:17.850Z,99.06
2023-03-08T09:42:24.364Z,98.65
2023-03-08T09:47:40.744Z,98.79
2023-03-08T09:52:48.569Z,99.46
2023-03-08T09:57:56.422Z,99.10
2023-03-08T10:03:26.444Z,99.50
2023-03-08T10:08:36.925Z,99.96
2023-03-08T10:13:42.044Z,100.00
2023-03-08T10:18:52.646Z,100.00
2023-03-08T10:24:01.710Z,100.00
2023-03-08T10:29:05.271Z,100.00
2023-03-08T10:34:15.325Z,100.00
2023-03-08T10:39:19.614Z,100.00
2023-03-08T10:44:36.978Z,100.00
2023-03-08T10:49:41.616Z,100.00
2023-03-08T10:54:44.838Z,100.00
2023-03-08T10:59:51.314Z,100.00
2023-03-08T11:04:57.836Z,100.00
2023-03-08T11:10:19.458Z,100.00
2023-03-08T11:15:22.969Z,100.00
2023-03-08T11:20:33.013Z,100.00
2023-03-08T11:25:43.496Z,100.00
2023-03-08T11:30:59.589Z,100.00
2023-03-08T11:36:13.198Z,100.00
2023-03-08T11:41:25.528Z,100.00
2023-03-08T11:46:34.123Z,100.00
2023-03-08T11:51:43.542Z,100.00
2023-03-08T11:56:52.259Z,100.00
2023-03-08T12:02:04.696Z,100.00
2023-03-08T12:07:17.366Z,100.00
2023-03-08T12:12:25.099Z,100.00
2023-03-08T12:17:33.578Z,100.00
2023-03-08T12:22:47.876Z,100.00
2023-03-08T12:27:56.541Z,100.00
2023-03-08T12:33:02.458Z,100.00
2023-03-08T12:38:28.182Z,100.00
2023-03-08T12:43:34.037Z,100.00
2023-03-08T12:48:40.702Z,100.00
2023-03-08T12:53:56.805Z,100.00
2023-03-08T12:59:02.067Z,100.00
2023-03-08T13:04:07.195Z,100.00
2023-03-08T13:09:22.367Z,100.00
2023-03-08T13:14:28.357Z,100.00
2023-03-08T13:19:33.113Z,100.00
2023-03-08T13:24:44.738Z,100.00
2023-03-08T13:29:49.009Z,100.00
2023-03-08T13:35:00.919Z,100.00
2023-03-08T13:40:08.711Z,100.00
2023-03-08T13:45:18.882Z,100.00
2023-03-08T13:50:27.638Z,100.00
2023-03-08T13:55:35.779Z,100.00
2023-03-08T14:00:39.415Z,100.00
2023-03-08T14:05:46.089Z,100.00
2023-03-08T14:10:55.269Z,100.00
2023-03-08T14:16:00.948Z,100.00
2023-03-08T14:21:08.051Z,100.00
2023-03-08T14:26:31.520Z,100.00
2023-03-08T14:31:35.074Z,100.00
2023-03-08T14:36:38.254Z,100.00
2023-03-08T14:41:43.542Z,100.00
2023-03-08T14:46:46.998Z,100.00
2023-03-08T14:51:51.915Z,100.00
2023-03-08T14:57:00.173Z,100.00
2023-03-08T15:02:03.681Z,100.00
2023-03-08T15:07:08.338Z,100.00
2023-03-08T15:12:13.911Z,100.00
2023-03-08T15:17:17.047Z,100.00
2023-03-08T15:22:20.224Z,100.00
2023-03-08T15:27:24.910Z,100.00
2023-03-08T15:32:28.016Z,100.00
2023-03-08T15:37:31.190Z,100.00
2023-03-08T15:42:35.928Z,100.00
2023-03-08T15:47:40.106Z,100.00
2023-03-08T15:52:44.098Z,100.00
2023-03-08T15:57:48.932Z,100.00
2023-03-08T16:02:53.787Z,100.00
2023-03-08T16:07:59.562Z,100.00
2023-03-08T16:13:04.050Z,100.00
2023-03-08T16:18:07.369Z,100.00
2023-03-08T16:23:10.730Z,100.00
2023-03-08T16:28:15.255Z,100.00
2023-03-08T16:33:18.480Z,100.00
2023-03-08T16:38:22.311Z,100.00
2023-03-08T16:43:32.251Z,100.00
2023-03-08T16:48:40.710Z,100.00
2023-03-08T16:53:44.492Z,100.00
2023-03-08T16:58:49.192Z,100.00
2023-03-08T17:03:52.860Z,100.00
2023-03-08T17:08:56.220Z,100.00
2023-03-08T17:14:02.806Z,100.00
2023-03-08T17:19:10.926Z,100.00
2023-03-08T17:24:15.810Z,100.00
2023-03-08T17:29:20.992Z,100.00
2023-03-08T17:34:24.721Z,100.00
2023-03-08T17:39:28.166Z,100.00
2023-03-08T17:44:33.066Z,100.00
2023-03-08T17:49:39.806Z,100.00
2023-03-08T17:54:42.977Z,100.00
2023-03-08T17:59:49.753Z,100.00
2023-03-08T18:04:54.301Z,100.00
2023-03-08T18:09:58.359Z,100.00
2023-03-08T18:15:04.542Z,100.00
2023-03-08T18:20:10.391Z,100.00
2023-03-08T18:25:17.331Z,100.00
2023-03-08T18:30:23.542Z,100.00
2023-03-08T18:35:26.956Z,100.00
2023-03-08T18:40:31.366Z,100.00
2023-03-08T18:45:35.833Z,100.00
2023-03-08T18:50:41.034Z,100.00
2023-03-08T18:55:55.709Z,100.00
2023-03-08T19:01:02.813Z,100.00
2023-03-08T19:06:07.314Z,100.00
2023-03-08T19:11:12.941Z,100.00
2023-03-08T19:16:21.410Z,100.00
2023-03-08T19:21:27.768Z,100.00
2023-03-08T19:26:41.213Z,100.00
2023-03-08T19:31:50.137Z,100.00
2023-03-08T19:36:54.339Z,100.00
2023-03-08T19:42:00.142Z,100.00
2023-03-08T19:47:07.945Z,100.00
2023-03-08T19:52:13.525Z,100.00
2023-03-08T19:57:16.973Z,100.00
2023-03-08T20:02:33.208Z,100.00
2023-03-08T20:07:36.810Z,100.00
2023-03-08T20:12:40.356Z,100.00
2023-03-08T20:17:47.973Z,100.00
2023-03-08T20:22:51.577Z,100.00
2023-03-08T20:27:55.169Z,100.00
2023-03-08T20:33:01.193Z,100.00
2023-03-08T20:38:05.064Z,100.00
2023-03-08T20:43:11.059Z,100.00
2023-03-08T20:48:19.421Z,100.00
2023-03-08T20:53:22.688Z,100.00
2023-03-08T20:58:26.671Z,100.00
2023-03-08T21:03:31.444Z,100.00
2023-03-08T21:08:34.919Z,100.00
2023-03-08T21:13:38.356Z,100.00
2023-03-08T21:18:46.416Z,100.00
2023-03-08T21:23:52.487Z,100.00
2023-03-08T21:28:58.851Z,100.00
2023-03-08T21:34:05.058Z,100.00
2023-03-08T21:39:09.385Z,100.00
2023-03-08T21:44:14.914Z,100.00
2023-03-08T21:49:22.610Z,100.00
2023-03-08T21:54:27.971Z,100.00
2023-03-08T21:59:34.006Z,100.00
2023-03-08T22:04:39.550Z,100.00
2023-03-08T22:09:43.017Z,100.00
2023-03-08T22:14:46.153Z,100.00
2023-03-08T22:19:51.953Z,100.00
2023-03-08T22:24:55.029Z,100.00
2023-03-08T22:29:59.019Z,100.00
2023-03-08T22:35:04.016Z,100.00
2023-03-08T22:40:11.366Z,100.00
2023-03-08T22:45:15.009Z,100.00
2023-03-08T22:50:19.838Z,100.00
2023-03-08T22:55:23.000Z,100.00
2023-03-08T23:00:26.604Z,100.00
2023-03-08T23:05:31.556Z,100.00
2023-03-08T23:10:35.136Z,100.00
2023-03-08T23:15:38.633Z,100.00
2023-03-08T23:20:43.429Z,100.00
2023-03-08T23:25:46.714Z,100.00
2023-03-08T23:30:49.896Z,100.00
2023-03-08T23:35:54.452Z,100.00
2023-03-08T23:40:58.197Z,100.00
2023-03-08T23:46:01.538Z,100.00
2023-03-08T23:51:07.496Z,100.00
2023-03-08T23:56:19.062Z,100.00
